マカオ の空港の天気 - METARとTAF

マカオ国際空港 ( VMMC / MFM ) - マカオ タイパ島
飛行場実況気象(Metar)
観測時間06/18 15:30 CST (06/18 07:30 UTC)
風向・風速南南西 7m/s
視程10km以上
天気現象
少しの雲 雲底高度 610m
気温30℃
湿度79%
気圧1001hPa
METARVMMC 180730Z 21013KT 9999 FEW020 30/26 Q1001 NOSIG
過去の天気等 Google飛行場航空写真 Wunderground天気予報

過去48時間のMETAR

飛行場予報(TAF)
発表時間: 6/18 13:00 CST (6/18 05:00 UTC)
予報対象時間: 18日14時 CST ~ 19日20時 CST
風向・風速南南西 6m/s
視程10km以上
少しの雲 雲底高度 760m
TAF VMMC 180500Z 1806/1912 21012KT 9999 FEW025